Time;durP1;ratioP1;P1;durP2;ratioP2;P2;SDS_P1;SDS_P2;PMS_P1;PMS_P2;Temp;Humidity;BMP_temperature;BMP_pressure;BME280_temperature;BME280_humidity;BME280_pressure;Samples;Min_cycle;Max_cycle;Signal;HPM_P1;HPM_P2
2024/01/11 00:00:47;;;;;;;14.50;11.10;;;;;;;-2.77;100.00;145381.19;5095315;28;20218;-59
2024/01/11 00:03:14;;;;;;;21.43;10.50;;;;;;;-2.88;100.00;145354.91;5094926;28;20237;-60
2024/01/11 00:05:42;;;;;;;11.57;10.47;;;;;;;-2.81;100.00;145371.19;5095176;28;20639;-56
2024/01/11 00:08:10;;;;;;;10.47;9.67;;;;;;;-2.73;100.00;145389.94;5094776;28;20181;-56
2024/01/11 00:10:37;;;;;;;10.50;9.40;;;;;;;-2.73;100.00;145391.19;5094714;28;20184;-54
2024/01/11 00:13:05;;;;;;;10.73;9.50;;;;;;;-2.65;100.00;145409.91;5094963;28;20184;-53
2024/01/11 00:15:32;;;;;;;13.23;9.77;;;;;;;-2.68;100.00;145402.44;5094702;28;20298;-55
2024/01/11 00:18:00;;;;;;;11.97;9.17;;;;;;;-2.71;100.00;145396.16;5094592;28;20203;-56
2024/01/11 00:20:27;;;;;;;15.17;9.77;;;;;;;-2.85;100.00;145361.19;5094922;28;20241;-55
2024/01/11 00:22:55;;;;;;;11.80;9.93;;;;;;;-2.72;100.00;145392.44;5094536;28;20275;-54
2024/01/11 00:25:22;;;;;;;17.63;10.30;;;;;;;-2.85;100.00;145362.47;5094445;28;20261;-55
2024/01/11 00:27:49;;;;;;;11.33;10.13;;;;;;;-2.70;100.00;145397.41;5094508;28;20176;-56
2024/01/11 00:30:16;;;;;;;15.57;10.47;;;;;;;-2.82;100.00;145369.94;5094755;28;20210;-54
2024/01/11 00:32:43;;;;;;;14.23;10.30;;;;;;;-2.79;100.00;145377.41;5094350;28;20184;-54
2024/01/11 00:35:11;;;;;;;27.37;11.30;;;;;;;-2.76;100.00;145383.69;5094587;28;20188;-56
2024/01/11 00:37:38;;;;;;;17.10;10.70;;;;;;;-2.77;100.00;145381.19;5093450;28;20261;-56
2024/01/11 00:40:08;;;;;;;15.50;10.90;;;;;;;-2.75;100.00;145386.16;5094214;28;20188;-56
2024/01/11 00:42:35;;;;;;;11.23;10.10;;;;;;;-2.95;100.00;145337.44;5094079;28;20274;-55
2024/01/11 00:45:03;;;;;;;10.40;9.40;;;;;;;-3.18;100.00;145278.75;5093973;28;20227;-55
2024/01/11 00:47:30;;;;;;;12.10;9.47;;;;;;;-2.93;100.00;145341.22;5094074;28;20180;-56
2024/01/11 00:49:57;;;;;;;9.60;8.60;;;;;;;-2.98;100.00;145328.72;5094009;28;20233;-57
2024/01/11 00:52:25;;;;;;;11.80;8.40;;;;;;;-2.95;100.00;145336.19;5094235;28;20234;-55
2024/01/11 00:54:52;;;;;;;13.97;9.30;;;;;;;-2.88;100.00;145353.66;5093819;28;20239;-54
2024/01/11 00:57:19;;;;;;;9.23;8.43;;;;;;;-2.96;100.00;145334.94;5094183;28;20628;-53
2024/01/11 00:59:46;;;;;;;8.63;7.77;;;;;;;-2.89;100.00;145352.47;5093872;28;20313;-56
2024/01/11 01:02:13;;;;;;;18.13;7.87;;;;;;;-2.84;100.00;145364.91;5093801;28;20185;-53
2024/01/11 01:04:40;;;;;;;8.00;7.27;;;;;;;-2.89;100.00;145351.22;5094078;28;20188;-53
2024/01/11 01:07:07;;;;;;;8.93;7.30;;;;;;;-3.01;100.00;145322.44;5093781;28;20184;-54
2024/01/11 01:09:36;;;;;;;7.97;7.37;;;;;;;-2.78;100.00;145378.69;5094300;28;20554;-53
2024/01/11 01:12:03;;;;;;;7.70;7.10;;;;;;;-2.73;100.00;145391.19;5093890;28;20180;-53
2024/01/11 01:14:30;;;;;;;7.53;6.83;;;;;;;-2.76;100.00;145383.69;5093818;28;20176;-52
2024/01/11 01:16:58;;;;;;;7.90;7.30;;;;;;;-2.71;100.00;145394.91;5093512;28;20739;-56
2024/01/11 01:19:25;;;;;;;8.10;7.53;;;;;;;-2.68;100.00;145402.44;5093426;28;20241;-56
2024/01/11 01:21:52;;;;;;;8.70;7.30;;;;;;;-2.72;100.00;145393.69;5093446;28;20260;-54
2024/01/11 01:24:19;;;;;;;8.13;7.53;;;;;;;-2.78;100.00;145378.69;5093692;28;20184;-54
2024/01/11 01:26:47;;;;;;;9.27;8.37;;;;;;;-2.92;100.00;145344.94;5093712;28;20196;-54
2024/01/11 01:29:15;;;;;;;9.57;7.57;;;;;;;-3.41;100.00;145222.53;5093245;28;20562;-54
2024/01/11 01:31:42;;;;;;;8.70;7.80;;;;;;;-2.94;100.00;145339.97;5093571;28;20568;-55
2024/01/11 01:34:09;;;;;;;12.30;7.80;;;;;;;-3.56;100.00;145186.31;5093194;28;20188;-55
2024/01/11 01:36:36;;;;;;;10.77;7.63;;;;;;;-3.30;100.00;145251.25;5093046;28;20188;-54
2024/01/11 01:39:04;;;;;;;6.47;5.97;;;;;;;-3.24;100.00;145266.25;5093361;28;20703;-56
2024/01/11 01:41:31;;;;;;;6.70;6.20;;;;;;;-3.15;100.00;145286.25;5093008;28;20274;-56
2024/01/11 01:43:59;;;;;;;4.63;4.33;;;;;;;-3.01;100.00;145321.22;5093294;28;20231;-55
2024/01/11 01:46:28;;;;;;;5.07;4.67;;;;;;;-2.94;100.00;145338.69;5092843;28;20195;-55
2024/01/11 01:48:58;;;;;;;4.33;4.03;;;;;;;-2.66;100.00;145407.41;5091846;28;20181;-53
2024/01/11 01:51:29;;;;;;;4.73;4.37;;;;;;;-2.51;100.00;145446.19;5093321;28;20572;-54
2024/01/11 01:53:58;;;;;;;4.43;4.23;;;;;;;-2.42;100.00;145468.63;5092908;28;20223;-56
2024/01/11 01:56:25;;;;;;;5.00;4.70;;;;;;;-2.22;100.00;145517.41;5093085;28;20212;-55
2024/01/11 01:58:54;;;;;;;4.53;4.33;;;;;;;-2.16;100.00;145532.38;5092644;28;20215;-54
2024/01/11 02:01:24;;;;;;;4.90;4.60;;;;;;;-2.13;100.00;145538.66;5092592;28;20184;-54
2024/01/11 02:03:53;;;;;;;7.53;4.80;;;;;;;-2.02;100.00;145566.16;5092901;28;20253;-56
2024/01/11 02:06:22;;;;;;;5.70;5.30;;;;;;;-2.00;100.00;145572.44;5092830;28;20565;-54
2024/01/11 02:08:52;;;;;;;5.93;4.90;;;;;;;-1.94;100.00;145586.16;5092550;28;20180;-55
2024/01/11 02:11:21;;;;;;;5.80;5.37;;;;;;;-1.89;100.00;145598.66;5092427;28;20196;-56
2024/01/11 02:13:48;;;;;;;6.33;5.37;;;;;;;-1.85;100.00;145608.69;5092473;28;20188;-54
2024/01/11 02:16:16;;;;;;;15.60;4.90;;;;;;;-1.97;100.00;145578.66;5092337;28;20196;-54
2024/01/11 02:18:44;;;;;;;8.10;4.77;;;;;;;-1.97;100.00;145578.66;5092521;28;20207;-55
2024/01/11 02:21:15;;;;;;;6.80;5.03;;;;;;;-2.11;100.00;145543.66;5092281;28;20193;-54
2024/01/11 02:23:46;;;;;;;3.67;3.37;;;;;;;-1.97;95.31;145578.66;5092275;28;20185;-54
2024/01/11 02:26:16;;;;;;;4.60;4.27;;;;;;;-1.98;95.23;145577.41;5092472;28;20222;-55
2024/01/11 02:28:45;;;;;;;4.87;4.30;;;;;;;-1.94;96.04;145586.16;5092122;28;20226;-54
2024/01/11 02:31:14;;;;;;;4.10;3.80;;;;;;;-2.00;96.17;145571.19;5092132;28;20190;-54
2024/01/11 02:33:43;;;;;;;6.37;4.77;;;;;;;-1.99;95.58;145574.91;5092137;28;20180;-54
2024/01/11 02:36:10;;;;;;;4.93;4.57;;;;;;;-1.98;97.76;145576.16;5092329;28;20559;-56
2024/01/11 02:38:39;;;;;;;5.07;3.57;;;;;;;-2.02;94.29;145567.41;5092243;28;20204;-54
2024/01/11 02:41:07;;;;;;;3.87;3.67;;;;;;;-2.06;92.16;145556.16;5091973;28;20221;-54
2024/01/11 02:43:36;;;;;;;5.47;5.07;;;;;;;-1.95;96.17;145583.66;5091962;28;20188;-54
2024/01/11 02:46:04;;;;;;;5.40;4.90;;;;;;;-1.97;98.48;145578.66;5092098;28;20643;-55
2024/01/11 02:48:31;;;;;;;5.30;5.00;;;;;;;-2.07;100.00;145553.66;5091873;28;20180;-53
2024/01/11 02:50:59;;;;;;;4.87;4.57;;;;;;;-2.24;100.00;145512.38;5092045;28;20200;-54
2024/01/11 02:53:26;;;;;;;4.90;4.60;;;;;;;-2.19;100.00;145523.66;5091867;28;20265;-54
2024/01/11 02:55:53;;;;;;;5.10;4.70;;;;;;;-2.40;100.00;145472.41;5091722;28;20232;-55
2024/01/11 02:58:20;;;;;;;6.83;5.00;;;;;;;-2.32;100.00;145492.41;5091973;28;20204;-54
2024/01/11 03:00:49;;;;;;;6.10;5.57;;;;;;;-2.40;100.00;145472.41;5091390;28;20193;-56
2024/01/11 03:03:16;;;;;;;6.20;5.80;;;;;;;-2.53;100.00;145441.16;5092089;28;20600;-55
2024/01/11 03:05:43;;;;;;;5.77;5.47;;;;;;;-2.46;100.00;145457.44;5092201;28;20260;-56
2024/01/11 03:08:10;;;;;;;6.50;6.10;;;;;;;-2.51;100.00;145444.91;5091884;28;20207;-56
2024/01/11 03:10:39;;;;;;;8.53;6.33;;;;;;;-2.55;100.00;145436.19;5091956;28;20596;-54
2024/01/11 03:13:06;;;;;;;7.03;5.87;;;;;;;-2.59;100.00;145426.19;5091894;28;20215;-55
2024/01/11 03:15:33;;;;;;;8.20;6.90;;;;;;;-2.85;100.00;145361.19;5091531;28;20191;-55
2024/01/11 03:18:02;;;;;;;8.47;6.73;;;;;;;-2.78;100.00;145379.94;5091763;28;20253;-53
2024/01/11 03:20:29;;;;;;;7.60;7.00;;;;;;;-2.76;100.00;145383.69;5091908;28;20249;-55
2024/01/11 03:22:56;;;;;;;7.50;6.90;;;;;;;-2.76;100.00;145383.69;5091537;28;20180;-54
2024/01/11 03:25:23;;;;;;;8.03;7.23;;;;;;;-2.88;100.00;145354.91;5091763;28;20245;-55
2024/01/11 03:27:50;;;;;;;14.37;7.63;;;;;;;-2.97;100.00;145332.44;5091667;28;20689;-54
2024/01/11 03:30:18;;;;;;;9.77;7.53;;;;;;;-2.99;100.00;145327.47;5091838;28;20654;-55
2024/01/11 03:32:45;;;;;;;8.27;7.77;;;;;;;-2.99;100.00;145326.19;5091460;28;20249;-55
2024/01/11 03:35:13;;;;;;;9.87;7.63;;;;;;;-3.19;100.00;145277.50;5091431;28;20184;-55
2024/01/11 03:37:40;;;;;;;9.07;8.17;;;;;;;-3.17;100.00;145281.22;5091299;28;20297;-54
2024/01/11 03:40:08;;;;;;;7.80;7.20;;;;;;;-3.08;100.00;145303.72;5091683;28;20333;-55
2024/01/11 03:42:35;;;;;;;8.33;7.53;;;;;;;-3.06;100.00;145308.72;5091309;28;20249;-54
2024/01/11 03:45:03;;;;;;;10.40;7.70;;;;;;;-3.05;100.00;145312.44;5091276;28;20183;-54
2024/01/11 03:47:30;;;;;;;8.20;7.53;;;;;;;-3.02;100.00;145318.72;5091326;28;20180;-53
2024/01/11 03:49:57;;;;;;;7.73;7.03;;;;;;;-2.92;100.00;145343.69;5091542;28;20242;-55
2024/01/11 03:52:25;;;;;;;8.03;7.30;;;;;;;-2.99;100.00;145326.19;5091253;28;20196;-54
2024/01/11 03:54:52;;;;;;;12.70;8.07;;;;;;;-3.01;100.00;145322.44;5091251;28;20228;-54
2024/01/11 03:57:19;;;;;;;10.43;8.80;;;;;;;-3.07;100.00;145306.22;5091422;28;20538;-55
2024/01/11 03:59:46;;;;;;;8.97;7.23;;;;;;;-2.98;100.00;145329.97;5091503;28;20181;-55
2024/01/11 04:02:13;;;;;;;8.93;8.07;;;;;;;-2.98;100.00;145328.72;5091495;28;20531;-54
2024/01/11 04:04:42;;;;;;;8.20;7.50;;;;;;;-3.13;100.00;145291.22;5091171;28;20233;-54
2024/01/11 04:07:09;;;;;;;8.80;7.33;;;;;;;-3.07;100.00;145307.47;5091124;28;20226;-55
2024/01/11 04:09:39;;;;;;;7.67;7.17;;;;;;;-3.18;100.00;145279.97;5091409;28;20241;-56
2024/01/11 04:12:07;;;;;;;10.77;8.37;;;;;;;-3.22;100.00;145268.78;5093011;28;20180;-56
2024/01/11 04:14:34;;;;;;;18.90;7.63;;;;;;;-3.11;100.00;145297.50;5095046;28;20636;-53
2024/01/11 04:17:01;;;;;;;7.73;7.03;;;;;;;-3.12;100.00;145294.97;5095104;28;20185;-55
2024/01/11 04:19:28;;;;;;;8.60;7.63;;;;;;;-3.22;100.00;145268.78;5094793;28;20302;-54
2024/01/11 04:21:55;;;;;;;13.83;8.53;;;;;;;-3.16;100.00;145283.72;5094564;28;20188;-55
2024/01/11 04:24:23;;;;;;;8.47;7.67;;;;;;;-3.15;100.00;145287.50;5094495;28;20245;-54
2024/01/11 04:26:51;;;;;;;8.33;7.57;;;;;;;-3.11;100.00;145297.50;5094666;28;20200;-54
2024/01/11 04:29:18;;;;;;;15.03;8.17;;;;;;;-3.04;100.00;145313.69;5094379;28;20181;-55
2024/01/11 04:31:45;;;;;;;8.63;7.93;;;;;;;-3.12;100.00;145294.97;5094502;28;20715;-56
2024/01/11 04:34:12;;;;;;;12.07;8.50;;;;;;;-3.14;100.00;145289.94;5094666;28;20612;-53
2024/01/11 04:36:39;;;;;;;11.80;7.43;;;;;;;-3.07;100.00;145306.22;5094774;28;20193;-54
2024/01/11 04:39:07;;;;;;;8.83;8.03;;;;;;;-3.10;100.00;145300.00;5094058;28;20200;-53
2024/01/11 04:41:36;;;;;;;9.13;8.27;;;;;;;-3.06;100.00;145310.00;5094493;28;20677;-54
2024/01/11 04:44:05;;;;;;;11.23;8.57;;;;;;;-2.99;100.00;145327.47;5094138;28;20202;-54
2024/01/11 04:46:32;;;;;;;12.20;8.57;;;;;;;-3.02;100.00;145318.72;5094168;28;20183;-55
2024/01/11 04:48:59;;;;;;;12.17;8.73;;;;;;;-3.04;100.00;145314.97;5094524;28;20188;-57
2024/01/11 04:51:26;;;;;;;9.70;8.77;;;;;;;-3.20;100.00;145275.00;5094082;28;20195;-55
2024/01/11 04:53:53;;;;;;;9.73;8.83;;;;;;;-3.05;100.00;145311.19;5094146;28;20630;-56
2024/01/11 04:56:20;;;;;;;12.80;8.87;;;;;;;-3.03;100.00;145316.22;5094147;28;20192;-53
2024/01/11 04:58:48;;;;;;;11.50;10.20;;;;;;;-3.03;100.00;145316.22;5094131;28;20269;-55
2024/01/11 05:01:18;;;;;;;48.13;21.70;;;;;;;-3.01;100.00;145321.22;5093828;28;20223;-55
2024/01/11 05:03:46;;;;;;;38.67;18.10;;;;;;;-3.05;100.00;145312.44;5094265;28;20675;-54
2024/01/11 05:06:16;;;;;;;35.83;15.00;;;;;;;-3.15;100.00;145286.25;5093944;28;20219;-56
2024/01/11 05:08:44;;;;;;;19.53;12.67;;;;;;;-3.43;100.00;145218.78;5093704;28;20206;-56
2024/01/11 05:11:17;;;;;;;25.30;10.17;;;;;;;-3.40;100.00;145226.31;5093886;28;20717;-53
2024/01/11 05:13:45;;;;;;;17.83;9.30;;;;;;;-3.40;100.00;145225.06;5093596;28;20271;-56
2024/01/11 05:16:19;;;;;;;17.77;8.97;;;;;;;-3.33;100.00;145243.78;5093485;28;20220;-54
2024/01/11 05:18:47;;;;;;;8.97;7.33;;;;;;;-3.31;100.00;145248.75;5093503;28;20651;-56
2024/01/11 05:21:14;;;;;;;9.70;7.93;;;;;;;-3.47;100.00;145208.78;5093505;28;20233;-56
2024/01/11 05:23:41;;;;;;;12.07;8.07;;;;;;;-3.48;100.00;145206.28;5093510;28;20189;-57
2024/01/11 05:26:09;;;;;;;12.67;7.40;;;;;;;-3.48;100.00;145206.28;5093646;28;20295;-56
2024/01/11 05:28:36;;;;;;;7.57;6.97;;;;;;;-3.41;100.00;145223.78;5093281;28;20185;-54
2024/01/11 05:31:03;;;;;;;13.30;7.60;;;;;;;-3.54;100.00;145191.31;5093538;28;20184;-55
2024/01/11 05:33:32;;;;;;;20.03;8.90;;;;;;;-3.38;100.00;145230.03;5093515;28;20184;-54
2024/01/11 05:35:59;;;;;;;18.80;10.17;;;;;;;-3.43;100.00;145218.78;5093421;28;20535;-54
2024/01/11 05:38:26;;;;;;;9.73;8.63;;;;;;;-3.31;100.00;145248.75;5093078;28;20204;-54
2024/01/11 05:40:53;;;;;;;11.33;9.00;;;;;;;-3.21;100.00;145272.47;5093483;28;20253;-54
2024/01/11 05:43:20;;;;;;;13.97;8.70;;;;;;;-3.27;100.00;145257.53;5093094;28;20188;-55
2024/01/11 05:45:47;;;;;;;8.87;8.17;;;;;;;-3.24;100.00;145265.00;5092866;28;20184;-56
2024/01/11 05:48:14;;;;;;;11.33;9.17;;;;;;;-3.28;100.00;145256.28;5092944;28;20187;-56
2024/01/11 05:50:42;;;;;;;10.47;8.83;;;;;;;-3.13;100.00;145291.22;5093318;28;20180;-56
2024/01/11 05:53:10;;;;;;;15.77;9.20;;;;;;;-3.05;100.00;145311.19;5093054;28;20196;-54
2024/01/11 05:55:37;;;;;;;17.80;9.67;;;;;;;-3.06;100.00;145308.72;5092543;28;20236;-56
2024/01/11 05:58:04;;;;;;;10.97;9.93;;;;;;;-2.96;100.00;145334.94;5092674;28;20237;-55
2024/01/11 06:00:31;;;;;;;17.93;9.93;;;;;;;-2.90;100.00;145348.69;5092949;28;20630;-56
2024/01/11 06:02:58;;;;;;;11.37;9.10;;;;;;;-2.78;100.00;145378.69;5092583;28;20317;-56
2024/01/11 06:05:26;;;;;;;15.70;9.23;;;;;;;-2.68;100.00;145403.69;5092833;28;20619;-54
2024/01/11 06:07:55;;;;;;;17.20;7.83;;;;;;;-2.50;100.00;145447.38;5092624;28;20204;-56
2024/01/11 06:10:22;;;;;;;20.73;6.97;;;;;;;-2.59;100.00;145424.94;5092471;28;20211;-54
2024/01/11 06:12:49;;;;;;;26.50;8.00;;;;;;;-2.57;100.00;145429.91;5092376;28;20184;-55
2024/01/11 06:15:16;;;;;;;31.10;7.50;;;;;;;-2.52;100.00;145443.66;5092403;28;20179;-55
2024/01/11 06:17:43;;;;;;;12.43;7.43;;;;;;;-2.21;100.00;145518.66;5092287;28;20180;-56
2024/01/11 06:20:11;;;;;;;17.03;6.67;;;;;;;-2.13;100.00;145539.91;5092466;28;20257;-55
2024/01/11 06:22:38;;;;;;;17.73;6.70;;;;;;;-1.92;100.00;145592.44;5092391;28;20188;-56
2024/01/11 06:25:08;;;;;;;17.23;7.90;;;;;;;-1.82;100.00;145616.16;5091922;28;20184;-55
2024/01/11 06:27:35;;;;;;;11.70;8.73;;;;;;;-1.65;100.00;145658.69;5092176;28;20247;-54
2024/01/11 06:30:02;;;;;;;22.93;9.43;;;;;;;-1.88;100.00;145602.44;5092251;28;20237;-54
2024/01/11 06:32:29;;;;;;;11.90;9.23;;;;;;;-1.62;100.00;145666.22;5091936;28;20191;-54
2024/01/11 06:34:56;;;;;;;19.30;9.70;;;;;;;-1.50;100.00;145696.25;5091647;28;20230;-54
2024/01/11 06:37:23;;;;;;;16.13;10.17;;;;;;;-1.12;100.00;145788.81;5092169;28;20638;-55
2024/01/11 06:39:51;;;;;;;15.13;10.30;;;;;;;-0.71;100.00;145890.19;5091663;28;20227;-56
2024/01/11 06:42:19;;;;;;;33.00;11.40;;;;;;;-0.48;100.00;145949.06;5092015;28;20184;-55
2024/01/11 06:44:47;;;;;;;17.50;11.40;;;;;;;-0.38;99.38;145971.59;5091849;28;20203;-56
2024/01/11 06:47:14;;;;;;;19.93;9.90;;;;;;;-0.38;95.13;145971.59;5091909;28;20333;-56
2024/01/11 06:49:42;;;;;;;26.20;11.57;;;;;;;-0.95;97.07;145831.38;5091843;28;20176;-56
2024/01/11 06:52:09;;;;;;;19.93;10.33;;;;;;;-0.76;97.98;145877.66;5091697;28;20547;-54
2024/01/11 06:54:36;;;;;;;20.40;10.37;;;;;;;-1.30;100.00;145745.03;5091340;28;20239;-56
2024/01/11 06:57:04;;;;;;;11.53;10.37;;;;;;;-1.13;100.00;145786.31;5091702;28;20531;-56
2024/01/11 06:59:32;;;;;;;31.70;12.20;;;;;;;-1.02;100.00;145813.88;5091152;28;20215;-57
2024/01/11 07:01:59;;;;;;;22.07;11.27;;;;;;;-0.81;100.00;145866.44;5091534;28;20192;-56
2024/01/11 07:04:26;;;;;;;14.50;10.27;;;;;;;-0.83;100.00;145860.16;5091969;28;20184;-56
2024/01/11 07:06:53;;;;;;;29.97;11.87;;;;;;;-0.79;100.00;145870.16;5091262;28;20188;-56
2024/01/11 07:09:21;;;;;;;20.60;12.20;;;;;;;-0.58;100.00;145922.75;5091235;28;20601;-55
2024/01/11 07:11:48;;;;;;;16.27;11.30;;;;;;;-0.09;100.00;146045.50;5090318;28;20191;-56
2024/01/11 07:14:15;;;;;;;24.93;13.47;;;;;;;0.77;98.39;146258.47;5091229;28;20184;-55
2024/01/11 07:16:43;;;;;;;15.57;11.00;;;;;;;1.71;89.33;146490.47;5091219;28;20184;-58
2024/01/11 07:19:12;;;;;;;15.90;11.33;;;;;;;2.26;79.66;146628.53;5091337;28;20231;-58
2024/01/11 07:21:39;;;;;;;21.37;11.03;;;;;;;2.89;76.55;146784.19;5091246;28;20192;-57
2024/01/11 07:24:07;;;;;;;20.40;10.20;;;;;;;3.42;71.10;146916.13;5091127;28;20218;-56
2024/01/11 07:26:34;;;;;;;25.07;10.47;;;;;;;4.10;66.15;147085.81;5091643;28;20203;-56
2024/01/11 07:29:01;;;;;;;21.17;10.93;;;;;;;4.18;65.32;147103.38;5091643;28;20180;-56
2024/01/11 07:31:29;;;;;;;26.63;11.50;;;;;;;3.81;65.00;147012.91;5092711;28;20708;-58
2024/01/11 07:33:57;;;;;;;19.63;10.43;;;;;;;3.31;66.82;146888.47;5091045;28;20189;-57
2024/01/11 07:36:25;;;;;;;23.83;11.70;;;;;;;3.16;67.05;146850.78;5091055;28;20185;-57
2024/01/11 07:38:52;;;;;;;24.70;11.53;;;;;;;3.40;66.39;146909.81;5091013;28;20214;-58
2024/01/11 07:41:19;;;;;;;21.07;10.63;;;;;;;3.72;66.10;146989.00;5091335;28;20191;-57
2024/01/11 07:43:46;;;;;;;24.83;10.80;;;;;;;3.84;66.02;147019.16;5090792;28;20188;-57
2024/01/11 07:46:13;;;;;;;18.77;10.57;;;;;;;4.47;63.14;147176.31;5092714;28;20176;-57
2024/01/11 07:48:40;;;;;;;20.07;10.20;;;;;;;5.26;59.86;147373.81;5095261;28;20238;-57
2024/01/11 07:51:09;;;;;;;17.43;9.47;;;;;;;5.86;58.75;147522.34;5094608;28;20241;-58
2024/01/11 07:53:36;;;;;;;17.33;9.20;;;;;;;5.87;57.62;147526.19;5094731;28;20188;-58
2024/01/11 07:56:03;;;;;;;12.10;9.07;;;;;;;6.36;56.69;147648.41;5095060;28;20638;-56
2024/01/11 07:58:30;;;;;;;12.23;9.63;;;;;;;6.30;55.22;147633.25;5094717;28;20257;-57
2024/01/11 08:00:57;;;;;;;21.13;10.07;;;;;;;6.69;55.42;147729.00;5094264;28;20236;-58
2024/01/11 08:03:24;;;;;;;16.07;9.83;;;;;;;5.82;55.08;147513.56;5094948;28;20536;-56
2024/01/11 08:05:51;;;;;;;10.27;8.60;;;;;;;6.22;54.51;147611.84;5094588;28;20237;-56
2024/01/11 08:08:20;;;;;;;15.63;8.37;;;;;;;5.68;54.34;147478.34;5094888;28;20244;-56
2024/01/11 08:10:47;;;;;;;19.00;8.70;;;;;;;4.91;57.20;147287.03;5094423;28;20192;-56
2024/01/11 08:13:14;;;;;;;14.07;9.07;;;;;;;5.06;55.51;147323.50;5094378;28;20188;-56
2024/01/11 08:15:41;;;;;;;11.63;9.23;;;;;;;5.07;57.33;147326.03;5094520;28;20237;-56
2024/01/11 08:18:08;;;;;;;15.60;9.60;;;;;;;5.51;55.96;147435.53;5094316;28;20654;-56
2024/01/11 08:20:35;;;;;;;27.93;10.47;;;;;;;5.69;55.18;147480.81;5092344;28;20212;-58
2024/01/11 08:23:03;;;;;;;21.30;8.83;;;;;;;5.59;55.06;147454.41;5094628;28;20196;-57
2024/01/11 08:25:31;;;;;;;9.77;8.60;;;;;;;5.58;54.88;147453.13;5094433;28;20200;-57
2024/01/11 08:27:58;;;;;;;12.07;9.50;;;;;;;5.69;54.83;147480.81;5094254;28;20184;-57
2024/01/11 08:30:25;;;;;;;15.77;9.77;;;;;;;5.53;54.88;147440.53;5094330;28;20180;-58
2024/01/11 08:32:52;;;;;;;12.97;9.87;;;;;;;5.43;55.40;147416.59;5094555;28;20180;-57
2024/01/11 08:35:20;;;;;;;22.67;11.33;;;;;;;5.85;54.50;147521.13;5094227;28;20192;-58
2024/01/11 08:37:47;;;;;;;17.07;10.37;;;;;;;5.82;54.34;147512.28;5094363;28;20787;-56
2024/01/11 08:40:15;;;;;;;16.43;10.17;;;;;;;5.84;54.52;147518.63;5093732;28;20208;-56
2024/01/11 08:42:44;;;;;;;12.33;9.63;;;;;;;5.70;54.72;147483.34;5094004;28;20223;-57
2024/01/11 08:45:17;;;;;;;17.87;8.57;;;;;;;5.68;53.71;147478.34;5093812;28;20551;-57
2024/01/11 08:47:45;;;;;;;15.73;8.50;;;;;;;5.57;53.81;147450.59;5093937;28;20180;-57
2024/01/11 08:50:14;;;;;;;22.47;8.53;;;;;;;5.72;53.76;147487.13;5094322;28;20184;-58
2024/01/11 08:52:42;;;;;;;16.73;8.33;;;;;;;6.75;51.95;147744.09;5093824;28;20219;-58
2024/01/11 08:55:09;;;;;;;16.50;7.90;;;;;;;7.45;50.90;147919.31;5093016;28;20249;-57
2024/01/11 08:57:37;;;;;;;18.43;8.70;;;;;;;8.99;47.85;148302.91;5092087;28;20187;-57
2024/01/11 09:00:07;;;;;;;15.30;10.87;;;;;;;8.84;47.90;148265.00;5092481;28;20242;-57
2024/01/11 09:02:35;;;;;;;18.87;13.93;;;;;;;9.47;47.10;148424.09;5093650;28;20702;-58
2024/01/11 09:05:04;;;;;;;26.60;15.43;;;;;;;10.56;46.46;148694.56;5093172;28;20180;-57
2024/01/11 09:07:32;;;;;;;23.93;14.47;;;;;;;10.61;44.17;148708.44;5093538;28;20635;-58
2024/01/11 09:09:59;;;;;;;14.53;12.53;;;;;;;10.84;43.58;148766.59;5093524;28;20188;-59
2024/01/11 09:12:26;;;;;;;14.97;10.33;;;;;;;11.15;42.31;148843.75;5093118;28;20192;-59
2024/01/11 09:14:54;;;;;;;15.07;10.20;;;;;;;9.98;42.98;148550.41;5093451;28;20283;-57
2024/01/11 09:17:23;;;;;;;20.00;10.00;;;;;;;9.41;44.18;148408.97;5092805;28;20562;-57
2024/01/11 09:19:50;;;;;;;16.67;10.40;;;;;;;8.84;46.15;148265.00;5093165;28;20743;-56
2024/01/11 09:22:17;;;;;;;11.47;7.83;;;;;;;8.56;44.29;148196.88;5093429;28;20183;-56
2024/01/11 09:24:45;;;;;;;14.60;8.00;;;;;;;8.70;45.11;148232.19;5092533;28;20184;-58
2024/01/11 09:27:12;;;;;;;11.03;8.83;;;;;;;9.08;44.91;148325.63;5093287;28;20252;-57
2024/01/11 09:29:44;;;;;;;17.80;10.07;;;;;;;9.41;44.61;148408.97;5093244;28;20180;-62
2024/01/11 09:32:11;;;;;;;10.83;8.87;;;;;;;9.51;44.62;148432.94;5092833;28;20280;-57
2024/01/11 09:34:39;;;;;;;14.00;8.30;;;;;;;9.48;44.47;148426.63;5092858;28;20320;-57
2024/01/11 09:37:06;;;;;;;16.70;9.33;;;;;;;8.67;45.52;148224.63;5093232;28;20562;-56
2024/01/11 09:39:34;;;;;;;11.23;10.07;;;;;;;7.02;49.18;147810.91;5093258;28;20200;-57
2024/01/11 09:42:07;;;;;;;18.47;10.90;;;;;;;6.58;51.08;147702.53;5093094;28;20215;-58
2024/01/11 09:44:34;;;;;;;10.67;9.80;;;;;;;7.63;50.20;147964.72;5092692;28;20188;-58
2024/01/11 09:47:02;;;;;;;11.00;10.03;;;;;;;8.63;49.27;148213.28;5092781;28;20185;-57
2024/01/11 09:49:31;;;;;;;14.13;9.53;;;;;;;9.69;46.24;148477.16;5092199;28;20233;-57
2024/01/11 09:52:02;;;;;;;16.93;10.30;;;;;;;10.45;45.51;148669.25;5092397;28;20225;-57
2024/01/11 09:54:29;;;;;;;9.97;8.93;;;;;;;11.07;44.26;148823.50;5092069;28;20334;-57
2024/01/11 09:57:00;;;;;;;11.20;9.33;;;;;;;12.29;41.79;149128.44;5092366;28;20184;-57
2024/01/11 09:59:28;;;;;;;9.97;7.93;;;;;;;12.77;41.56;149248.72;5092684;28;20292;-57
2024/01/11 10:01:55;;;;;;;10.33;8.60;;;;;;;12.97;40.95;149298.09;5092653;28;20188;-58
2024/01/11 10:04:22;;;;;;;5.63;5.23;;;;;;;13.48;37.98;149427.38;5092380;28;20195;-57
2024/01/11 10:06:51;;;;;;;6.00;5.00;;;;;;;13.44;37.82;149417.22;5092782;28;20176;-57
2024/01/11 10:09:20;;;;;;;7.27;6.07;;;;;;;13.59;38.06;149453.94;5091442;28;20223;-56
2024/01/11 10:11:49;;;;;;;6.23;5.73;;;;;;;12.88;38.14;149275.31;5092325;28;20241;-57
2024/01/11 10:14:16;;;;;;;10.30;6.90;;;;;;;14.01;37.01;149560.41;5092083;28;20188;-57
2024/01/11 10:16:43;;;;;;;12.67;7.93;;;;;;;14.22;36.76;149612.34;5092096;28;20245;-57
2024/01/11 10:19:13;;;;;;;11.20;7.50;;;;;;;14.10;36.75;149583.22;5092095;28;20194;-58
2024/01/11 10:21:40;;;;;;;9.60;7.10;;;;;;;13.51;36.96;149434.94;5091964;28;20245;-57
2024/01/11 10:24:08;;;;;;;9.37;8.50;;;;;;;13.24;38.16;149366.53;5091978;28;20184;-58
2024/01/11 10:26:39;;;;;;;17.63;11.87;;;;;;;13.39;39.22;149404.56;5092557;28;20214;-57
2024/01/11 10:29:10;;;;;;;10.73;10.03;;;;;;;13.14;39.03;149341.22;5092323;28;20266;-57
2024/01/11 10:31:37;;;;;;;12.23;11.13;;;;;;;13.07;39.54;149323.44;5092205;28;20604;-56
2024/01/11 10:34:05;;;;;;;14.83;11.27;;;;;;;13.09;39.97;149328.50;5091799;28;20246;-57
2024/01/11 10:36:35;;;;;;;8.97;8.20;;;;;;;13.69;38.85;149480.59;5092008;28;20200;-57
2024/01/11 10:39:05;;;;;;;9.83;7.13;;;;;;;14.26;37.88;149621.28;5092052;28;20232;-57
2024/01/11 10:41:40;;;;;;;20.03;8.20;;;;;;;13.93;37.90;149540.13;5091928;28;20697;-56
2024/01/11 10:44:13;;;;;;;11.87;9.97;;;;;;;13.39;39.01;149404.56;5091746;28;20229;-56
2024/01/11 10:46:42;;;;;;;10.90;10.10;;;;;;;13.71;38.55;149484.34;5091390;28;20179;-56
2024/01/11 10:49:12;;;;;;;11.23;8.77;;;;;;;13.61;38.24;149460.31;5091585;28;20228;-57
2024/01/11 10:51:41;;;;;;;11.53;10.53;;;;;;;13.41;38.22;149408.38;5091786;28;20187;-56
2024/01/11 10:54:08;;;;;;;18.83;10.40;;;;;;;13.57;38.71;149450.19;5091676;28;20356;-57
2024/01/11 10:56:39;;;;;;;12.27;10.50;;;;;;;13.71;38.86;149484.34;5091318;28;20192;-56
2024/01/11 10:59:07;;;;;;;9.43;6.90;;;;;;;14.13;37.90;149590.81;5091393;28;20190;-56
2024/01/11 11:01:35;;;;;;;8.57;7.00;;;;;;;15.24;36.21;149868.59;5091673;28;20261;-57
2024/01/11 11:04:03;;;;;;;5.37;5.07;;;;;;;15.50;34.81;149933.34;5091516;28;20188;-56
2024/01/11 11:06:32;;;;;;;8.73;7.27;;;;;;;15.29;35.93;149881.28;5091634;28;20172;-56
2024/01/11 11:09:00;;;;;;;6.50;6.10;;;;;;;16.05;34.79;150070.41;5091673;28;20188;-56
2024/01/11 11:11:28;;;;;;;14.97;6.00;;;;;;;15.64;35.36;149967.63;5091783;28;20719;-57
2024/01/11 11:13:59;;;;;;;5.27;4.27;;;;;;;13.25;35.77;149370.34;5091356;28;20194;-57
2024/01/11 11:16:28;;;;;;;5.53;5.03;;;;;;;11.84;38.39;149017.06;5091637;28;20241;-56